Time;durP1;ratioP1;P1;durP2;ratioP2;P2;SDS_P1;SDS_P2;PMS_P1;PMS_P2;Temp;Humidity;BMP_temperature;BMP_pressure;BME280_temperature;BME280_humidity;BME280_pressure;Samples;Min_cycle;Max_cycle;Signal;HPM_P1;HPM_P2
2023/03/22 00:01:29;;;;;;;8.83;2.33;;;;;;;8.53;100.00;100842.59;4824267;29;20038;-90
2023/03/22 00:03:56;;;;;;;8.52;2.50;;;;;;;8.51;100.00;100833.84;4823929;29;20038;-90
2023/03/22 00:06:25;;;;;;;7.85;2.47;;;;;;;8.49;100.00;100840.47;4824836;29;20102;-90
2023/03/22 00:08:54;;;;;;;9.00;2.60;;;;;;;8.43;100.00;100837.53;4824608;29;20464;-90
2023/03/22 00:11:23;;;;;;;8.68;2.00;;;;;;;8.41;100.00;100825.22;4825701;29;20035;-90
2023/03/22 00:13:51;;;;;;;12.67;2.50;;;;;;;8.38;100.00;100825.63;4809332;29;20042;-90
2023/03/22 00:16:20;;;;;;;10.60;2.10;;;;;;;8.37;100.00;100824.81;4824477;29;20404;-89
2023/03/22 00:18:46;;;;;;;8.38;2.13;;;;;;;8.40;100.00;100827.09;4824953;29;20372;-90
2023/03/22 00:21:14;;;;;;;7.60;2.10;;;;;;;8.35;100.00;100815.22;4824455;29;20041;-90
2023/03/22 00:23:40;;;;;;;9.27;2.65;;;;;;;8.33;100.00;100811.91;4824515;29;20637;-90
2023/03/22 00:26:06;;;;;;;9.57;2.40;;;;;;;8.34;100.00;100810.84;4824545;29;20494;-90
2023/03/22 00:28:34;;;;;;;9.50;2.00;;;;;;;8.32;100.00;100804.81;4824255;29;20424;-90
2023/03/22 00:31:02;;;;;;;7.03;2.20;;;;;;;8.29;100.00;100805.22;4808597;29;20030;-91
2023/03/22 00:33:29;;;;;;;7.97;2.30;;;;;;;8.30;100.00;100804.16;4824078;29;20107;-90
2023/03/22 00:36:05;;;;;;;6.70;1.88;;;;;;;8.25;100.00;100799.38;4805689;29;20110;-90
2023/03/22 00:38:40;;;;;;;10.82;2.75;;;;;;;8.23;100.00;100799.56;4820647;29;20055;-90
2023/03/22 00:41:09;;;;;;;9.43;2.63;;;;;;;8.19;100.00;100787.53;4805103;29;20049;-90
2023/03/22 00:43:42;;;;;;;10.32;2.70;;;;;;;8.19;100.00;100784.81;4804933;29;20061;-90
2023/03/22 00:46:09;;;;;;;7.22;2.60;;;;;;;8.22;100.00;100794.38;4820560;29;20046;-90
2023/03/22 00:48:35;;;;;;;7.03;2.75;;;;;;;8.22;100.00;100780.84;4805172;29;20129;-90
2023/03/22 00:51:00;;;;;;;12.85;2.92;;;;;;;8.26;100.00;100782.94;4806131;29;20027;-89
2023/03/22 00:53:29;;;;;;;9.27;2.90;;;;;;;8.29;100.00;100770.09;4805162;29;20038;-90
2023/03/22 00:55:56;;;;;;;12.25;3.03;;;;;;;8.30;100.00;100769.03;4806199;29;20127;-90
2023/03/22 00:58:24;;;;;;;12.43;3.63;;;;;;;8.27;100.00;100764.88;4805948;29;20488;-90
2023/03/22 01:00:50;;;;;;;7.80;3.17;;;;;;;8.28;100.00;100754.88;4804706;29;20050;-89
2023/03/22 01:03:16;;;;;;;9.73;3.70;;;;;;;8.29;100.00;100761.97;4804970;29;20125;-89
2023/03/22 01:05:45;;;;;;;10.05;3.75;;;;;;;8.33;100.00;100750.53;4806173;29;20035;-89
2023/03/22 01:08:11;;;;;;;10.63;4.10;;;;;;;8.50;100.00;100761.03;4806079;29;20072;-90
2023/03/22 01:10:38;;;;;;;13.70;4.63;;;;;;;8.49;100.00;100753.94;4806012;29;20034;-90
2023/03/22 01:13:04;;;;;;;7.20;4.27;;;;;;;8.46;100.00;100747.09;4804540;29;20034;-89
2023/03/22 01:15:29;;;;;;;11.20;4.70;;;;;;;8.50;100.00;100742.91;4804553;29;20475;-90
2023/03/22 01:17:55;;;;;;;16.77;5.65;;;;;;;8.52;100.00;100745.41;4804497;29;20039;-89
2023/03/22 01:20:24;;;;;;;11.48;5.43;;;;;;;8.55;100.00;100734.22;4804925;29;20070;-89
2023/03/22 01:22:50;;;;;;;13.30;5.70;;;;;;;8.56;100.00;100733.16;4804582;29;20067;-89
2023/03/22 01:25:16;;;;;;;16.42;5.88;;;;;;;8.59;100.00;100725.50;4805795;29;20077;-90
2023/03/22 01:27:41;;;;;;;13.60;6.03;;;;;;;8.64;100.00;100714.03;4805589;29;20038;-90
2023/03/22 01:30:07;;;;;;;11.93;5.72;;;;;;;8.67;100.00;100707.41;4819730;29;20464;-90
2023/03/22 01:32:34;;;;;;;13.52;5.63;;;;;;;8.66;100.00;100695.72;4804466;29;20495;-89
2023/03/22 01:34:59;;;;;;;13.50;6.00;;;;;;;8.69;100.00;100684.50;4804504;29;20041;-89
2023/03/22 01:37:50;;;;;;;16.00;5.87;;;;;;;8.68;100.00;100695.53;5089401;27;1303729;-89
2023/03/22 01:40:18;;;;;;;10.55;5.88;;;;;;;8.70;100.00;100685.34;5094410;28;20089;-89
2023/03/22 01:42:43;;;;;;;16.15;6.30;;;;;;;8.73;100.00;100687.63;5112062;28;20478;-89
2023/03/22 01:45:17;;;;;;;16.87;6.60;;;;;;;8.73;100.00;100679.53;5111629;28;20028;-89
2023/03/22 01:48:01;;;;;;;12.38;6.10;;;;;;;8.73;100.00;100674.94;5110224;28;20035;-89
2023/03/22 01:50:31;;;;;;;13.73;6.32;;;;;;;8.80;100.00;100668.69;5111255;28;20027;-89
2023/03/22 01:53:00;;;;;;;13.63;7.20;;;;;;;8.89;100.00;100662.88;5110202;28;20104;-90
2023/03/22 01:55:26;;;;;;;17.70;6.30;;;;;;;8.86;100.00;100655.16;5111109;28;20031;-90
2023/03/22 01:57:55;;;;;;;11.35;5.85;;;;;;;8.92;100.00;100658.91;5110000;28;20024;-90
2023/03/22 02:00:23;;;;;;;11.82;6.93;;;;;;;8.94;100.00;100660.34;5093058;28;20042;-90
2023/03/22 02:02:53;;;;;;;14.18;7.10;;;;;;;8.95;100.00;100648.50;5110246;28;20023;-90
2023/03/22 02:05:22;;;;;;;11.05;7.10;;;;;;;8.98;100.00;100649.97;5110849;28;20032;-90
2023/03/22 02:07:51;;;;;;;12.73;6.87;;;;;;;8.97;100.00;100644.75;5093316;28;20043;-90
2023/03/22 02:10:23;;;;;;;11.40;6.75;;;;;;;8.97;100.00;100645.56;5109413;28;20177;-90
2023/03/22 02:13:13;;;;;;;12.55;7.45;;;;;;;9.03;100.00;100639.31;5109710;28;20016;-89
2023/03/22 02:16:09;;;;;;;12.57;7.22;;;;;;;9.05;100.00;100634.53;5109782;28;20036;-90
2023/03/22 02:18:56;;;;;;;13.50;7.78;;;;;;;9.03;100.00;100625.78;5110335;28;20028;-89
2023/03/22 02:21:50;;;;;;;13.00;7.83;;;;;;;9.09;100.00;100635.78;5109839;28;20134;-90
2023/03/22 02:24:28;;;;;;;12.30;7.15;;;;;;;9.09;100.00;100634.94;5109482;28;20042;-89
2023/03/22 02:27:22;;;;;;;14.43;7.45;;;;;;;9.07;100.00;100627.03;5110552;28;20028;-90
2023/03/22 02:30:11;;;;;;;12.85;6.93;;;;;;;9.12;100.00;100616.44;5109357;28;20463;-90
2023/03/22 02:33:01;;;;;;;15.25;8.15;;;;;;;9.16;100.00;100624.94;5110401;28;20050;-90
2023/03/22 02:35:35;;;;;;;10.13;6.63;;;;;;;9.13;100.00;100618.06;5109278;28;20156;-90
2023/03/22 02:38:19;;;;;;;13.35;7.03;;;;;;;9.16;100.00;100616.00;5110903;28;20038;-89
2023/03/22 02:40:57;;;;;;;12.90;7.38;;;;;;;9.17;100.00;100620.34;5109339;28;20098;-90
2023/03/22 02:43:40;;;;;;;10.20;6.93;;;;;;;9.19;100.00;100624.53;5109268;28;20031;-89
2023/03/22 02:46:17;;;;;;;10.15;5.25;;;;;;;9.23;100.00;100609.53;5109030;28;20122;-90
2023/03/22 02:49:06;;;;;;;12.20;6.37;;;;;;;9.23;100.00;100614.13;5098527;28;20028;-90
2023/03/22 02:51:41;;;;;;;11.25;6.00;;;;;;;9.23;100.00;100623.06;5096759;28;20114;-89
2023/03/22 02:54:21;;;;;;;12.23;6.07;;;;;;;9.25;100.00;100610.13;5096664;28;20149;-89
2023/03/22 02:57:02;;;;;;;10.80;5.38;;;;;;;9.34;100.00;100610.72;5095298;28;20032;-89
2023/03/22 02:59:30;;;;;;;10.63;6.20;;;;;;;9.33;100.00;100600.13;5095092;28;20039;-89
2023/03/22 03:02:03;;;;;;;8.97;5.47;;;;;;;9.28;100.00;100592.63;5094954;28;20031;-88
2023/03/22 03:04:38;;;;;;;14.48;5.68;;;;;;;9.27;100.00;100589.09;5096734;28;20042;-89
2023/03/22 03:07:08;;;;;;;10.13;5.28;;;;;;;9.25;100.00;100591.19;5094793;28;20032;-89
2023/03/22 03:09:36;;;;;;;8.48;5.30;;;;;;;9.25;100.00;100587.66;5094853;28;20032;-89
2023/03/22 03:12:15;;;;;;;9.82;5.30;;;;;;;9.22;100.00;100593.50;5095184;28;20024;-90
2023/03/22 03:14:41;;;;;;;8.17;4.77;;;;;;;9.20;100.00;100579.34;5095736;28;20031;-89
2023/03/22 03:17:32;;;;;;;9.40;4.70;;;;;;;9.25;100.00;100588.47;5096357;28;20097;-90
2023/03/22 03:20:42;;;;;;;8.95;4.68;;;;;;;9.29;100.00;100581.59;5096435;28;20098;-89
2023/03/22 03:23:30;;;;;;;7.80;4.53;;;;;;;9.23;100.00;100579.75;5091522;28;20031;-89
2023/03/22 03:26:43;;;;;;;9.23;3.97;;;;;;;9.30;100.00;100582.41;5095030;28;20475;-89
2023/03/22 03:29:36;;;;;;;9.95;3.95;;;;;;;9.26;100.00;100579.31;5061717;28;20047;-89
2023/03/22 03:32:20;;;;;;;7.68;4.15;;;;;;;9.30;100.00;100572.44;5094876;28;20032;-89
2023/03/22 03:35:08;;;;;;;7.43;4.00;;;;;;;9.26;100.00;100579.31;5095171;28;20426;-89
2023/03/22 03:37:56;;;;;;;7.22;3.50;;;;;;;9.28;100.00;100577.22;5095292;28;20056;-89
2023/03/22 03:40:48;;;;;;;10.15;4.10;;;;;;;9.34;100.00;100575.53;5096045;28;20039;-90
2023/03/22 03:43:15;;;;;;;8.45;3.67;;;;;;;9.34;100.00;100575.53;5084212;28;20044;-89
2023/03/22 03:45:43;;;;;;;8.52;3.50;;;;;;;9.30;100.00;100579.69;5095617;28;20495;-89
2023/03/22 03:48:26;;;;;;;11.13;4.50;;;;;;;9.27;100.00;100580.97;5094144;28;20028;-90
2023/03/22 03:50:56;;;;;;;8.98;3.55;;;;;;;9.20;100.00;100574.75;5095021;28;20477;-89
2023/03/22 03:53:37;;;;;;;;;;;;;;;;;;;;;
2023/03/22 04:42:03;;;;;;;;;;;;;;;;;;;;;
2023/03/22 05:02:37;;;;;;;;;;;;;;;;;;;;;
2023/03/22 05:12:08;;;;;;;8.25;2.58;;;;;;;8.71;100.00;100536.38;4935187;29;20036;-92
2023/03/22 05:25:27;;;;;;;;;;;;;;;;;;;;;
2023/03/22 05:31:56;;;;;;;7.25;2.60;;;;;;;8.72;100.00;100548.81;4916262;29;20038;-92
2023/03/22 05:38:45;;;;;;;;;;;;;;;;;;;;;
2023/03/22 05:55:44;;;;;;;7.22;2.55;;;;;;;8.82;100.00;100544.88;4972205;28;20039;-92
2023/03/22 06:08:39;;;;;;;;;;;;;;;;;;;;;
2023/03/22 06:21:42;;;;;;;15.30;4.85;;;;;;;9.03;100.00;100546.50;4915587;29;20412;-92
2023/03/22 06:27:54;;;;;;;;;;;;;;;;;;;;;
2023/03/22 06:30:30;;;;;;;7.10;2.30;;;;;;;9.23;100.00;100547.25;4945262;28;20054;-95
2023/03/22 06:33:24;;;;;;;6.00;1.77;;;;;;;9.17;100.00;100526.47;4999959;28;20042;-96
2023/03/22 06:35:57;;;;;;;5.15;2.15;;;;;;;9.22;100.00;100534.75;5036119;28;20120;-95
2023/03/22 06:39:01;;;;;;;;;;;;;;;;;;;;;
2023/03/22 06:41:37;;;;;;;6.32;2.53;;;;;;;9.39;100.00;100545.09;5039983;28;20055;-94
2023/03/22 06:47:33;;;;;;;12.55;3.03;;;;;;;9.39;100.00;100540.53;5318401;22;20084;-96
2023/03/22 06:50:14;;;;;;;9.88;2.58;;;;;;;9.53;100.00;100559.44;5132847;23;20460;-94
2023/03/22 06:52:59;;;;;;;;;;;;;;;;;;;;;
2023/03/22 06:55:58;;;;;;;;;;;;;;;;;;;;;
2023/03/22 06:58:56;;;;;;;;;;;;;;;;;;;;;
2023/03/22 07:01:30;;;;;;;9.15;2.72;;;;;;;9.94;99.71;100542.72;4997614;28;20029;-96
2023/03/22 07:04:23;;;;;;;8.80;2.33;;;;;;;10.00;99.03;100573.56;4983314;28;20105;-94
2023/03/22 07:07:06;;;;;;;9.48;2.90;;;;;;;9.89;99.38;100529.00;4998420;28;20114;-96
2023/03/22 07:13:09;;;;;;;;;;;;;;;;;;;;;
2023/03/22 07:16:21;;;;;;;;;;;;;;;;;;;;;
2023/03/22 07:19:00;;;;;;;7.10;2.85;;;;;;;9.97;97.98;100531.44;4996126;28;20038;-93
2023/03/22 07:24:46;;;;;;;7.47;2.83;;;;;;;10.08;96.45;100537.22;4995118;28;20113;-93
2023/03/22 07:27:38;;;;;;;9.73;3.30;;;;;;;10.25;95.81;100546.47;4995514;28;20034;-93
2023/03/22 07:30:17;;;;;;;10.18;3.00;;;;;;;10.39;95.00;100549.09;4981638;28;20049;-93
2023/03/22 07:36:40;;;;;;;;;;;;;;;;;;;;;
2023/03/22 07:39:37;;;;;;;6.90;2.80;;;;;;;10.45;94.19;100548.22;4996365;28;20589;-93
2023/03/22 07:42:20;;;;;;;;;;;;;;;;;;;;;
2023/03/22 07:48:27;;;;;;;6.43;2.45;;;;;;;10.63;91.59;100539.28;4965308;28;20030;-92
2023/03/22 07:58:38;;;;;;;;;;;;;;;;;;;;;
2023/03/22 08:01:23;;;;;;;10.27;2.22;;;;;;;10.90;89.38;100529.00;4981507;28;20038;-95
2023/03/22 08:07:41;;;;;;;;;;;;;;;;;;;;;
2023/03/22 08:10:33;;;;;;;13.52;2.22;;;;;;;10.79;86.55;100554.16;4996757;28;20462;-94
2023/03/22 08:13:45;;;;;;;;;;;;;;;;;;;;;
2023/03/22 08:16:57;;;;;;;;;;;;;;;;;;;;;
2023/03/22 08:20:22;;;;;;;9.27;1.42;;;;;;;11.04;85.47;100556.81;4995114;28;20479;-94
2023/03/22 08:23:06;;;;;;;;;;;;;;;;;;;;;
2023/03/22 08:29:59;;;;;;;;;;;;;;;;;;;;;
2023/03/22 08:32:58;;;;;;;;;;;;;;;;;;;;;
2023/03/22 08:35:57;;;;;;;11.13;2.40;;;;;;;11.53;84.44;100562.31;4992640;28;20052;-94
2023/03/22 08:55:13;;;;;;;;;;;;;;;;;;;;;
2023/03/22 08:58:20;;;;;;;;;;;;;;;;;;;;;
2023/03/22 09:00:58;;;;;;;;;;;;;;;;;;;;;
2023/03/22 09:04:06;;;;;;;;;;;;;;;;;;;;;
2023/03/22 09:06:57;;;;;;;8.10;1.15;;;;;;;11.97;78.99;100548.56;5015949;28;20042;-95
2023/03/22 09:13:06;;;;;;;10.75;1.60;;;;;;;11.99;78.09;100516.53;5011095;28;20136;-94
2023/03/22 09:15:45;;;;;;;;;;;;;;;;;;;;;
2023/03/22 09:18:24;;;;;;;;;;;;;;;;;;;;;
2023/03/22 09:21:20;;;;;;;;;;;;;;;;;;;;;
2023/03/22 09:23:59;;;;;;;;;;;;;;;;;;;;;
2023/03/22 09:26:31;;;;;;;7.28;1.77;;;;;;;12.25;75.50;100515.28;4993612;28;20060;-95
2023/03/22 09:29:16;;;;;;;5.45;1.27;;;;;;;12.24;76.18;100514.47;4993527;28;20038;-95
2023/03/22 09:31:47;;;;;;;9.15;1.67;;;;;;;12.36;75.70;100538.13;4961125;28;20042;-94
2023/03/22 09:34:36;;;;;;;7.68;1.40;;;;;;;12.30;75.53;100507.25;4993841;28;20120;-94
2023/03/22 09:37:07;;;;;;;7.03;1.47;;;;;;;12.29;75.40;100502.88;4976591;28;20038;-94
2023/03/22 09:39:40;;;;;;;7.50;1.33;;;;;;;12.22;74.93;100500.28;4962284;28;20033;-95
2023/03/22 09:42:43;;;;;;;;;;;;;;;;;;;;;
2023/03/22 09:45:41;;;;;;;;;;;;;;;;;;;;;
2023/03/22 09:49:05;;;;;;;11.15;1.73;;;;;;;12.07;75.87;100510.75;4994947;28;20045;-94
2023/03/22 09:51:47;;;;;;;8.33;1.70;;;;;;;11.87;76.74;100497.44;4900217;29;20046;-94
2023/03/22 09:54:36;;;;;;;10.18;1.20;;;;;;;12.00;77.30;100524.47;4916282;29;20051;-95
2023/03/22 09:57:36;;;;;;;9.20;1.20;;;;;;;11.99;77.25;100511.09;4935325;29;20039;-96
2023/03/22 10:00:44;;;;;;;10.88;1.60;;;;;;;11.99;77.39;100513.81;4972593;28;20038;-95
2023/03/22 10:03:42;;;;;;;6.22;1.20;;;;;;;11.87;78.27;100528.19;5003616;28;20037;-94
2023/03/22 10:06:27;;;;;;;10.73;1.23;;;;;;;11.91;78.11;100515.78;5000769;28;20061;-94
2023/03/22 10:09:31;;;;;;;6.53;1.25;;;;;;;11.92;78.23;100516.63;5018064;28;20033;-95
2023/03/22 10:15:51;;;;;;;;;;;;;;;;;;;;;
2023/03/22 10:19:03;;;;;;;5.53;1.15;;;;;;;11.82;79.15;100528.03;5000202;28;20026;-95
2023/03/22 10:22:01;;;;;;;6.53;1.40;;;;;;;11.50;80.66;100514.72;4937959;29;20032;-96
2023/03/22 10:25:06;;;;;;;;;;;;;;;;;;;;;
2023/03/22 10:27:59;;;;;;;15.45;1.63;;;;;;;11.21;83.81;100538.88;5015061;28;20046;-93
2023/03/22 10:30:52;;;;;;;8.25;1.10;;;;;;;10.92;88.67;100528.78;5000489;28;20084;-93
2023/03/22 10:33:53;;;;;;;7.22;2.10;;;;;;;10.28;96.36;100540.59;5002508;28;20065;-93
2023/03/22 10:36:46;;;;;;;11.97;1.57;;;;;;;9.69;100.00;100534.53;5002429;28;20492;-94
2023/03/22 10:40:14;;;;;;;12.50;1.60;;;;;;;9.62;100.00;100547.28;5003077;28;20064;-94
2023/03/22 10:43:16;;;;;;;7.65;1.75;;;;;;;9.32;100.00;100541.63;4963234;28;20026;-95
2023/03/22 10:46:07;;;;;;;10.55;2.10;;;;;;;9.15;100.00;100535.84;5000265;28;20041;-94
2023/03/22 10:52:43;;;;;;;11.15;1.90;;;;;;;9.03;100.00;100536.47;4992390;28;20105;-94
2023/03/22 10:55:17;;;;;;;12.43;2.50;;;;;;;9.08;100.00;100543.97;4877074;29;20119;-94
2023/03/22 10:58:07;;;;;;;14.88;2.45;;;;;;;9.04;100.00;100534.63;4908413;29;20131;-94
2023/03/22 11:01:13;;;;;;;12.60;2.72;;;;;;;8.90;100.00;100531.09;4921695;29;20084;-95
2023/03/22 11:03:54;;;;;;;10.90;2.67;;;;;;;8.90;100.00;100537.38;4898842;29;20113;-94
2023/03/22 11:07:09;;;;;;;;;;;;;;;;;;;;;
2023/03/22 11:10:15;;;;;;;10.80;2.72;;;;;;;9.01;100.00;100537.75;4971562;28;20036;-93
2023/03/22 11:20:14;;;;;;;7.30;2.67;;;;;;;9.25;100.00;100534.31;4977783;28;20042;-93
2023/03/22 11:23:14;;;;;;;;;;;;;;;;;;;;;
2023/03/22 11:26:26;;;;;;;12.57;3.20;;;;;;;9.37;100.00;100520.94;4998100;28;20439;-94
2023/03/22 11:29:38;;;;;;;;;;;;;;;;;;;;;
2023/03/22 11:35:54;;;;;;;12.48;2.70;;;;;;;9.42;100.00;100531.13;4937507;29;20067;-93
2023/03/22 11:42:10;;;;;;;;;;;;;;;;;;;;;
2023/03/22 11:44:46;;;;;;;;;;;;;;;;;;;;;
2023/03/22 11:51:32;;;;;;;11.25;2.00;;;;;;;9.65;100.00;100517.91;4935951;29;20047;-93
2023/03/22 12:15:55;;;;;;;4.30;1.45;;;;;;;9.93;100.00;100508.53;4788255;30;20053;-92
2023/03/22 12:21:47;;;;;;;5.93;1.20;;;;;;;10.22;100.00;100508.94;4759893;30;20540;-92
2023/03/22 12:24:25;;;;;;;4.38;1.00;;;;;;;10.29;100.00;100501.59;4874728;29;20126;-92
2023/03/22 12:33:52;;;;;;;;;;;;;;;;;;;;;
2023/03/22 12:50:33;;;;;;;4.95;1.27;;;;;;;10.88;98.67;100498.56;4882006;29;20036;-92
2023/03/22 12:53:41;;;;;;;7.20;1.27;;;;;;;10.79;98.24;100491.75;4864628;29;20037;-92
2023/03/22 13:03:34;;;;;;;;;;;;;;;;;;;;;
2023/03/22 13:06:49;;;;;;;;;;;;;;;;;;;;;
2023/03/22 13:17:06;;;;;;;4.37;1.30;;;;;;;11.23;95.60;100501.47;4954294;29;20046;-92
2023/03/22 13:19:52;;;;;;;4.88;1.35;;;;;;;11.17;95.50;100480.63;4932934;29;20044;-90
2023/03/22 13:22:35;;;;;;;5.22;1.40;;;;;;;11.30;94.69;100484.25;4934667;29;20036;-90
2023/03/22 13:25:22;;;;;;;;;;;;;;;;;;;;;
2023/03/22 13:28:37;;;;;;;;;;;;;;;;;;;;;
2023/03/22 13:31:49;;;;;;;4.40;0.97;;;;;;;11.33;95.21;100487.34;4897778;29;20092;-91
2023/03/22 15:01:16;;;;;;;4.10;1.63;;;;;;;11.19;100.00;100432.38;5017650;28;20501;-94
2023/03/22 15:11:40;;;;;;;;;;;;;;;;;;;;;
2023/03/22 15:17:37;;;;;;;6.50;2.45;;;;;;;11.10;100.00;100438.34;4919445;28;20098;-92
2023/03/22 15:29:19;;;;;;;5.10;2.17;;;;;;;10.47;100.00;100433.03;4937509;29;20110;-94
2023/03/22 15:31:54;;;;;;;12.18;3.05;;;;;;;10.10;100.00;100426.69;4982033;28;20060;-88
2023/03/22 15:34:42;;;;;;;9.23;2.65;;;;;;;10.01;100.00;100428.84;5020019;28;20037;-95
2023/03/22 15:37:47;;;;;;;;;;;;;;;;;;;;;
2023/03/22 15:41:14;;;;;;;9.75;3.65;;;;;;;9.81;100.00;100415.47;5028001;28;20120;-94
2023/03/22 15:43:47;;;;;;;8.05;2.67;;;;;;;9.79;100.00;100421.09;4947955;28;20046;-95
2023/03/22 15:46:44;;;;;;;7.07;2.90;;;;;;;9.77;100.00;100409.66;5019242;28;20115;-94
2023/03/22 15:49:41;;;;;;;12.02;2.95;;;;;;;9.72;100.00;100416.78;5018927;28;20461;-94
2023/03/22 15:52:48;;;;;;;5.88;2.70;;;;;;;9.74;100.00;100433.66;5019449;28;20037;-94
2023/03/22 15:55:38;;;;;;;11.75;3.50;;;;;;;9.78;100.00;100430.28;5011197;28;20103;-94
2023/03/22 15:58:41;;;;;;;9.75;3.72;;;;;;;9.72;100.00;100430.34;5018445;28;20037;-95
2023/03/22 16:01:52;;;;;;;;;;;;;;;;;;;;;
2023/03/22 16:04:56;;;;;;;7.75;3.10;;;;;;;9.67;100.00;100428.28;5025852;28;20045;-95
2023/03/22 16:07:57;;;;;;;12.73;3.77;;;;;;;9.65;100.00;100422.25;5004131;28;20060;-95
2023/03/22 16:10:36;;;;;;;;;;;;;;;;;;;;;
2023/03/22 16:13:41;;;;;;;8.07;3.50;;;;;;;9.70;100.00;100429.72;5036347;28;20416;-94
2023/03/22 16:16:32;;;;;;;;;;;;;;;;;;;;;
2023/03/22 16:19:06;;;;;;;8.38;3.15;;;;;;;9.68;100.00;100421.00;5036846;28;20026;-95
2023/03/22 16:21:34;;;;;;;12.95;4.05;;;;;;;9.70;100.00;100421.59;5019506;28;20029;-95
2023/03/22 16:24:21;;;;;;;11.38;4.18;;;;;;;9.71;100.00;100428.66;5024938;28;20075;-96
2023/03/22 16:26:58;;;;;;;;;;;;;;;;;;;;;
2023/03/22 16:29:44;;;;;;;5.43;3.58;;;;;;;9.73;100.00;100422.00;5024476;28;20120;-95
2023/03/22 16:32:18;;;;;;;14.90;4.30;;;;;;;9.80;100.00;100428.19;5022326;28;20026;-96
2023/03/22 16:34:59;;;;;;;8.60;3.53;;;;;;;9.80;100.00;100425.47;5021123;28;20109;-95
2023/03/22 16:37:45;;;;;;;15.70;4.88;;;;;;;9.75;100.00;100419.06;5023643;28;20029;-96
2023/03/22 16:40:41;;;;;;;13.25;4.38;;;;;;;9.72;100.00;100411.38;5020482;28;20072;-96
2023/03/22 16:43:17;;;;;;;15.27;4.60;;;;;;;9.69;100.00;100414.53;5033687;28;20021;-95
2023/03/22 16:46:00;;;;;;;10.10;4.05;;;;;;;9.71;100.00;100415.13;5021466;28;20029;-95
2023/03/22 16:48:49;;;;;;;11.30;4.32;;;;;;;9.71;100.00;100409.72;5022054;28;20067;-95
2023/03/22 16:51:34;;;;;;;;;;;;;;;;;;;;;
2023/03/22 16:54:03;;;;;;;7.82;3.95;;;;;;;9.68;100.00;100392.00;5019484;28;20120;-95
2023/03/22 16:56:41;;;;;;;8.68;4.60;;;;;;;9.66;100.00;100400.34;5000809;28;20477;-96
2023/03/22 16:59:17;;;;;;;7.22;3.90;;;;;;;9.66;100.00;100394.13;5003921;28;20117;-96
2023/03/22 17:01:51;;;;;;;8.15;4.28;;;;;;;9.63;100.00;100378.31;4988171;28;20074;-96
2023/03/22 17:04:29;;;;;;;8.10;3.92;;;;;;;9.58;100.00;100370.00;5002798;28;20037;-96
2023/03/22 17:07:17;;;;;;;;;;;;;;;;;;;;;
2023/03/22 17:09:50;;;;;;;9.63;4.70;;;;;;;9.63;100.00;100373.72;5036516;28;20064;-94
2023/03/22 17:12:29;;;;;;;9.88;4.70;;;;;;;9.59;100.00;100364.38;5030392;28;20050;-95
2023/03/22 17:15:30;;;;;;;11.05;4.40;;;;;;;9.58;100.00;100376.28;5009935;28;20033;-96
2023/03/22 17:18:08;;;;;;;5.25;3.92;;;;;;;9.51;100.00;100380.91;4971072;28;20393;-95
2023/03/22 17:20:52;;;;;;;8.68;4.22;;;;;;;9.52;100.00;100390.66;5005432;28;20114;-95
2023/03/22 17:23:43;;;;;;;8.35;4.57;;;;;;;9.53;100.00;100403.16;5001357;28;20108;-95
2023/03/22 17:29:02;;;;;;;9.90;4.93;;;;;;;9.52;100.00;100384.44;5016701;28;20042;-94
2023/03/22 17:31:31;;;;;;;10.52;4.25;;;;;;;9.53;100.00;100392.34;4995411;28;20046;-94
2023/03/22 17:34:15;;;;;;;10.93;5.05;;;;;;;9.46;100.00;100378.84;5004212;28;20525;-95
2023/03/22 17:36:50;;;;;;;9.10;5.47;;;;;;;9.47;100.00;100380.50;4999428;28;20032;-95
2023/03/22 17:39:34;;;;;;;13.43;5.38;;;;;;;9.52;100.00;100381.72;4999026;28;20580;-94
2023/03/22 17:42:01;;;;;;;12.75;5.78;;;;;;;9.46;100.00;100376.16;4983792;28;20048;-96
2023/03/22 17:47:34;;;;;;;;;;;;;;;;;;;;;
2023/03/22 17:50:15;;;;;;;13.82;5.25;;;;;;;9.46;100.00;100391.53;5027404;28;20068;-95
2023/03/22 17:53:01;;;;;;;8.90;5.50;;;;;;;9.49;100.00;100393.81;5002635;28;20470;-95
2023/03/22 17:55:32;;;;;;;10.00;5.68;;;;;;;9.49;100.00;100404.66;4999176;28;20034;-96
2023/03/22 17:58:29;;;;;;;7.32;4.07;;;;;;;9.58;100.00;100407.91;4981597;28;20528;-95
2023/03/22 18:01:06;;;;;;;;;;;;;;;;;;;;;
2023/03/22 18:03:46;;;;;;;10.93;6.30;;;;;;;9.51;100.00;100401.72;5016364;28;20124;-95
2023/03/22 18:06:15;;;;;;;11.18;6.53;;;;;;;9.47;100.00;100398.63;4982217;28;20041;-96
2023/03/22 18:09:01;;;;;;;12.32;6.07;;;;;;;9.53;100.00;100381.50;5015161;28;20056;-96
2023/03/22 18:11:39;;;;;;;12.43;5.22;;;;;;;9.54;100.00;100387.75;4997361;28;20040;-96
2023/03/22 18:14:28;;;;;;;;;;;;;;;;;;;;;
2023/03/22 18:17:09;;;;;;;;;;;;;;;;;;;;;
2023/03/22 18:19:56;;;;;;;;;;;;;;;;;;;;;
2023/03/22 18:22:33;;;;;;;7.72;4.50;;;;;;;9.45;100.00;100373.66;4988102;28;20042;-96
2023/03/22 18:24:58;;;;;;;12.60;6.05;;;;;;;9.52;100.00;100379.84;4982172;28;20082;-96
2023/03/22 18:30:31;;;;;;;12.00;5.07;;;;;;;9.54;100.00;100360.69;4991606;28;20034;-96
2023/03/22 18:33:02;;;;;;;11.98;5.03;;;;;;;9.53;100.00;100353.59;5000655;28;20062;-95
2023/03/22 18:35:37;;;;;;;12.68;5.43;;;;;;;9.53;100.00;100361.72;4984933;28;20030;-95
2023/03/22 18:38:31;;;;;;;;;;;;;;;;;;;;;
2023/03/22 18:41:14;;;;;;;13.65;4.82;;;;;;;9.52;100.00;100360.88;5003101;28;20042;-96
2023/03/22 18:43:54;;;;;;;15.20;5.20;;;;;;;9.45;100.00;100355.53;4999695;28;20038;-96
2023/03/22 18:46:32;;;;;;;10.02;5.40;;;;;;;9.45;100.00;100360.94;4985308;28;20474;-95
2023/03/22 18:49:00;;;;;;;13.00;5.28;;;;;;;9.46;100.00;100369.88;4984834;28;20140;-96
2023/03/22 18:51:41;;;;;;;;;;;;;;;;;;;;;
2023/03/22 18:54:17;;;;;;;13.95;4.90;;;;;;;9.52;100.00;100357.34;5017774;28;20030;-95
2023/03/22 18:57:03;;;;;;;;;;;;;;;;;;;;;
2023/03/22 18:59:57;;;;;;;13.98;4.32;;;;;;;9.46;100.00;100329.25;5017568;28;20381;-95
2023/03/22 19:02:46;;;;;;;;;;;;;;;;;;;;;
2023/03/22 19:05:24;;;;;;;12.90;4.15;;;;;;;9.47;100.00;100314.69;5002247;28;20042;-96
2023/03/22 19:08:11;;;;;;;17.17;7.25;;;;;;;9.42;100.00;100322.63;4999884;28;20375;-96
2023/03/22 19:10:47;;;;;;;22.97;8.43;;;;;;;9.47;100.00;100311.97;4967602;28;20042;-96
2023/03/22 19:13:23;;;;;;;;;;;;;;;;;;;;;
2023/03/22 19:16:07;;;;;;;25.98;6.68;;;;;;;9.47;100.00;100296.53;5017160;28;20133;-96
2023/03/22 19:18:43;;;;;;;12.77;4.75;;;;;;;9.50;100.00;100314.25;5015644;28;20038;-96
2023/03/22 19:21:36;;;;;;;15.40;5.70;;;;;;;9.54;100.00;100315.47;5016050;28;20030;-96
2023/03/22 19:24:36;;;;;;;;;;;;;;;;;;;;;
2023/03/22 19:27:26;;;;;;;;;;;;;;;;;;;;;
2023/03/22 19:30:01;;;;;;;18.98;8.60;;;;;;;9.55;100.00;100308.16;4982249;28;20030;-96
2023/03/22 19:32:29;;;;;;;33.83;13.18;;;;;;;9.54;100.00;100304.63;4964278;28;20065;-96
2023/03/22 19:35:18;;;;;;;;;;;;;;;;;;;;;
2023/03/22 19:38:13;;;;;;;20.97;8.33;;;;;;;9.55;100.00;100297.31;4997592;28;20370;-96
2023/03/22 19:41:20;;;;;;;;;;;;;;;;;;;;;
2023/03/22 19:44:19;;;;;;;13.77;5.63;;;;;;;9.70;100.00;100302.38;4998592;28;20101;-95
2023/03/22 19:49:53;;;;;;;;;;;;;;;;;;;;;
2023/03/22 19:52:52;;;;;;;12.87;6.73;;;;;;;9.66;100.00;100299.31;4997033;28;20375;-96
2023/03/22 19:55:40;;;;;;;17.30;7.20;;;;;;;9.61;100.00;100291.84;4979785;28;20398;-96
2023/03/22 20:01:32;;;;;;;;;;;;;;;;;;;;;
2023/03/22 20:04:51;;;;;;;;;;;;;;;;;;;;;
2023/03/22 20:07:48;;;;;;;;;;;;;;;;;;;;;
2023/03/22 20:11:05;;;;;;;17.70;7.55;;;;;;;9.58;100.00;100291.47;4968091;28;20033;-94
2023/03/22 20:13:51;;;;;;;12.90;7.90;;;;;;;9.63;100.00;100314.13;4961364;28;20398;-95
2023/03/22 20:17:39;;;;;;;;;;;;;;;;;;;;;
2023/03/22 20:20:21;;;;;;;15.25;6.95;;;;;;;9.64;100.00;100296.84;4972448;28;20278;-95
2023/03/22 20:29:37;;;;;;;31.88;13.35;;;;;;;9.54;100.00;100284.84;4973375;28;20052;-94
2023/03/22 20:32:19;;;;;;;17.17;9.10;;;;;;;9.57;100.00;100277.09;4982619;28;20514;-95
2023/03/22 20:35:08;;;;;;;;;;;;;;;;;;;;;
2023/03/22 20:38:25;;;;;;;;;;;;;;;;;;;;;
2023/03/22 20:40:56;;;;;;;16.70;7.40;;;;;;;9.55;100.00;100276.50;4995397;28;20044;-95
2023/03/22 20:43:41;;;;;;;13.93;7.40;;;;;;;9.51;100.00;100261.75;4979213;28;20030;-94
2023/03/22 20:46:41;;;;;;;15.73;7.60;;;;;;;9.50;100.00;100256.56;4978906;28;20038;-96
2023/03/22 20:49:38;;;;;;;17.13;7.15;;;;;;;9.48;100.00;100244.06;4974668;28;20140;-96
2023/03/22 20:53:13;;;;;;;19.77;7.10;;;;;;;9.48;100.00;100235.94;4962248;28;20065;-95
2023/03/22 20:56:00;;;;;;;16.00;6.50;;;;;;;9.48;100.00;100248.66;4965805;28;20034;-94